Prince Said Ibrahim International Airport Moroni KM
ICAO: FMCH
IATA: HAH
Category: Medium
Scheduled Services: Yes

Elevation: 93 ft
TransAlt. 6000 ft.

Airport Communications:
A/G VOICE RDO:465.7
TWR:119.7

FMCH Zoom In..

Runways:

(A) RW 02 length 9514 ft width 148 ft
ILS 110.30 / hdg 16

(B) RW 20 length 9514 ft width 148 ft
---- / hdg 196

Location; FMCH
Day. 07 / Time. 05.00 Zulu
* QNH: 1014
* Temperature: 30° c. 86°f.
* Wind from: 030° Speed 05 kn.
Dewpoint: 23° c.
Visibility: 10 km or more.
Clouds: Few 2000 ft.
No significant changes expected in the near future.

FMCH 070500Z 03005KT 9999 FEW020 30/23 Q1014 NOSIG


Wind From 030°
Speed 05 kn.

 
 
jpsmedia worldairports.se 2020   terms of use